6th June 2021 | Mackay, QLD, Australia

Mackay Marina Fun Run (2021)

North Queensland Bulk Ports Half Marathon: Male 20-29

Pos Name Gun Time Net Time Overall Pos Gender (Pos)
1 Jack POWELL (#489) 01:23:09 01:23:08 8 Male  (7)
2 Matt SIMPSON (#514) 01:23:29 01:23:22 10 Male  (9)
3 Blase POWELL (#488) 01:28:31 01:28:27 18 Male  (15)
4 Mitchell EVETTS (#92) 01:29:15 01:29:12 21 Male  (18)
5 Luke MITCHELL (#235) 01:37:09 01:36:52 46 Male  (42)
6 Sandeep PATEL (#262) 01:41:25 01:41:03 66 Male  (55)
7 Joshua DIONYSIUS (#411) 01:41:42 01:41:28 68 Male  (56)
8 Arana MCDONNELL (#212) 01:43:30 01:43:24 79 Male  (64)
9 Jm SOTTO (#326) 01:44:33 01:44:00 85 Male  (68)
10 Matt HASWELL (#435) 01:44:42 01:44:35 87 Male  (69)
11 Sean MULCAHY (#473) 01:46:40 01:46:34 99 Male  (79)
12 Justin SOMERSET (#324) 01:47:13 01:47:03 106 Male  (84)
13 Jimmy NIXON (#247) 01:47:48 01:47:38 109 Male  (87)
14 Giles KISBY (#173) 01:50:17 01:49:43 122 Male  (99)
15 Kentaro KAMADA (#451) 01:50:43 01:50:29 129 Male  (104)
16 Tim DALTON (#68) 01:51:50 01:51:24 141 Male  (112)
17 Jack GREEN (#429) 01:52:03 01:51:56 146 Male  (115)
18 Darcy HOUGHTON (#146) 01:53:26 01:53:15 158 Male  (122)
19 Cale CRAMERI (#406) 01:53:29 01:53:16 161 Male  (123)
20 Layton ROMAGNOLO (#291) 01:55:41 01:55:27 179 Male  (134)
21 Vishakulan PRAPAKARAN (#490) 01:57:05 01:56:54 196 Male  (144)
22 Jacob TULL (#527) 01:57:05 01:57:05 197 Male  (145)
23 Dean WILLIAMS (#537) 01:57:31 01:57:24 201 Male  (148)
24 Dean SMITH (#515) 01:59:06 01:58:53 219 Male  (157)
25 Josh BARTOLO (#392) 01:59:39 01:59:10 224 Male  (159)
26 Heath BORG (#32) 02:02:32 02:02:27 247 Male  (167)
27 Michael HAYHOE (#137) 02:03:52 02:03:25 262 Male  (172)
28 Tom TALOCOD (#338) 02:04:31 02:04:14 268 Male  (175)
29 Bradley WALZ (#532) 02:05:15 02:04:52 272 Male  (178)
30 Drew WENZEL (#372) 02:05:19 02:04:50 273 Male  (179)
31 Mitchell DEWSON (#410) 02:06:22 02:06:01 286 Male  (185)
32 Guy THOMPSON (#342) 02:13:47 02:13:30 334 Male  (203)
33 Aaron BONSER (#30) 02:15:15 02:14:45 341 Male  (206)
34 Dylan MATTHEWS (#207) 02:15:49 02:15:37 347 Male  (209)
35 Cooper HUNT (#151) 02:29:58 02:29:23 404 Male  (227)
36 Adam DAVIDSON (#69) 02:30:22 02:29:59 406 Male  (228)
37 Geremy RICH (#496) 02:34:32 02:34:12 418 Male  (231)
DNF Peter TEMPLER (#340) 00:00:00 DNF Male 
DNS Samuel MCKENZIE (#467) 00:00:00 DNS Male 
DNS Andre KALASHNIKOFF (#450) 00:00:00 DNS Male 
DNS Cornelis POTGIETER (#274) 00:00:00 DNS Male 
DNS Kieren PERKINS (#269) 00:00:00 DNS Male 
DNS Josh PERCIVAL (#268) 00:00:00 DNS Male 
DNS Sam MCKENZIE (#) 00:00:00 DNS Male 
DNS Travis MANSFIELD (#204) 00:00:00 DNS Male 
DNS James LLOYD (#191) 00:00:00 DNS Male 
DNS Drew LAWTON (#185) 00:00:00 DNS Male 
DNS Tarryn HAYDEN (#136) 00:00:00 DNS Male 
DNS Clifford BAKER (#21) 00:00:00 DNS Male